createdAt,value
2023-01-25T00:00:19.705Z,16.79
2023-01-25T00:03:21.375Z,16.78
2023-01-25T00:06:23.065Z,16.77
2023-01-25T00:09:27.640Z,16.76
2023-01-25T00:12:29.129Z,16.74
2023-01-25T00:15:30.916Z,16.76
2023-01-25T00:18:32.393Z,16.76
2023-01-25T00:21:34.849Z,16.77
2023-01-25T00:24:36.383Z,16.76
2023-01-25T00:27:38.023Z,16.75
2023-01-25T00:30:39.537Z,16.72
2023-01-25T00:33:50.826Z,16.73
2023-01-25T00:37:02.351Z,16.71
2023-01-25T00:40:05.129Z,16.69
2023-01-25T00:43:06.628Z,16.69
2023-01-25T00:46:09.294Z,16.67
2023-01-25T00:49:26.577Z,16.67
2023-01-25T00:52:28.635Z,16.64
2023-01-25T00:55:30.123Z,16.62
2023-01-25T00:58:31.729Z,16.62
2023-01-25T01:01:34.825Z,16.61
2023-01-25T01:04:36.440Z,16.59
2023-01-25T01:07:38.481Z,16.59
2023-01-25T01:10:40.393Z,16.58
2023-01-25T01:13:41.971Z,16.57
2023-01-25T01:16:43.551Z,16.56
2023-01-25T01:19:45.082Z,16.57
2023-01-25T01:22:46.557Z,16.56
2023-01-25T01:25:48.096Z,16.55
2023-01-25T01:28:49.687Z,16.55
2023-01-25T01:31:53.557Z,16.53
2023-01-25T01:34:58.621Z,16.54
2023-01-25T01:38:00.150Z,16.52
2023-01-25T01:41:01.843Z,16.50
2023-01-25T01:44:04.635Z,16.51
2023-01-25T01:47:15.149Z,16.50
2023-01-25T01:50:21.048Z,16.51
2023-01-25T01:53:25.032Z,16.49
2023-01-25T01:56:32.644Z,16.50
2023-01-25T01:59:50.998Z,16.49
2023-01-25T02:02:54.358Z,16.48
2023-01-25T02:06:47.032Z,16.50
2023-01-25T02:09:51.319Z,16.48
2023-01-25T02:12:55.521Z,16.48
2023-01-25T02:15:58.587Z,16.48
2023-01-25T02:19:02.365Z,16.48
2023-01-25T02:22:10.117Z,16.47
2023-01-25T02:25:14.757Z,16.46
2023-01-25T02:28:43.699Z,16.46
2023-01-25T02:31:47.468Z,16.45
2023-01-25T02:34:49.080Z,16.42
2023-01-25T02:37:51.827Z,16.42
2023-01-25T02:41:06.919Z,16.43
2023-01-25T02:44:12.701Z,16.41
2023-01-25T02:47:15.918Z,16.39
2023-01-25T02:50:17.681Z,16.40
2023-01-25T02:53:19.251Z,16.39
2023-01-25T02:56:21.610Z,16.39
2023-01-25T02:59:23.688Z,16.39
2023-01-25T03:02:28.782Z,16.39
2023-01-25T03:05:30.284Z,16.38
2023-01-25T03:08:33.909Z,16.38
2023-01-25T03:11:36.122Z,16.39
2023-01-25T03:14:37.864Z,16.38
2023-01-25T03:17:39.463Z,16.36
2023-01-25T03:20:41.197Z,16.36
2023-01-25T03:23:43.927Z,16.36
2023-01-25T03:27:06.562Z,16.35
2023-01-25T03:30:13.712Z,16.34
2023-01-25T03:33:15.224Z,16.35
2023-01-25T03:36:16.860Z,16.33
2023-01-25T03:39:18.431Z,16.33
2023-01-25T03:42:21.365Z,16.34
2023-01-25T03:45:26.985Z,16.33
2023-01-25T03:48:29.661Z,16.34
2023-01-25T03:51:31.362Z,16.34
2023-01-25T03:54:33.139Z,16.33
2023-01-25T03:57:34.838Z,16.32
2023-01-25T04:00:39.427Z,16.33
2023-01-25T04:03:41.058Z,16.34
2023-01-25T04:06:43.703Z,16.35
2023-01-25T04:09:45.280Z,16.37
2023-01-25T04:12:47.550Z,16.39
2023-01-25T04:15:49.899Z,16.40
2023-01-25T04:19:04.482Z,16.41
2023-01-25T04:22:08.879Z,16.43
2023-01-25T04:25:12.575Z,16.46
2023-01-25T04:28:22.067Z,16.46
2023-01-25T04:31:23.803Z,16.48
2023-01-25T04:34:25.591Z,16.49
2023-01-25T04:37:27.178Z,16.51
2023-01-25T04:40:32.548Z,16.53
2023-01-25T04:43:34.175Z,16.55
2023-01-25T04:46:40.785Z,16.54
2023-01-25T04:49:42.292Z,16.56
2023-01-25T04:52:44.727Z,16.56
2023-01-25T04:55:47.852Z,16.56
2023-01-25T04:58:50.197Z,16.53
2023-01-25T05:01:51.736Z,16.53
2023-01-25T05:04:53.262Z,16.51
2023-01-25T05:07:56.031Z,16.51
2023-01-25T05:10:57.697Z,16.51
2023-01-25T05:14:17.624Z,16.50
2023-01-25T05:17:20.786Z,16.48
2023-01-25T05:20:22.555Z,16.47
2023-01-25T05:23:24.275Z,16.45
2023-01-25T05:26:46.255Z,16.44
2023-01-25T05:29:48.115Z,16.42
2023-01-25T05:32:50.533Z,16.42
2023-01-25T05:35:53.695Z,16.40
2023-01-25T05:38:56.053Z,16.39
2023-01-25T05:41:57.726Z,16.37
2023-01-25T05:44:59.243Z,16.36
2023-01-25T05:48:00.917Z,16.36
2023-01-25T05:51:02.417Z,16.34
2023-01-25T05:54:06.979Z,16.35
2023-01-25T05:57:09.108Z,16.37
2023-01-25T06:00:11.509Z,16.37
2023-01-25T06:03:16.092Z,16.39
2023-01-25T06:06:18.731Z,16.41
2023-01-25T06:09:20.888Z,16.41
2023-01-25T06:12:22.512Z,16.44
2023-01-25T06:15:25.177Z,16.47
2023-01-25T06:18:31.520Z,16.50
2023-01-25T06:21:53.424Z,16.51
2023-01-25T06:24:54.919Z,16.52
2023-01-25T06:27:56.427Z,16.55
2023-01-25T06:31:04.185Z,16.59
2023-01-25T06:34:06.367Z,16.58
2023-01-25T06:37:08.112Z,16.58
2023-01-25T06:40:10.279Z,16.60
2023-01-25T06:43:12.020Z,16.59
2023-01-25T06:46:13.879Z,16.58
2023-01-25T06:49:15.406Z,16.58
2023-01-25T06:52:16.940Z,16.57
2023-01-25T06:55:18.453Z,16.56
2023-01-25T06:58:19.993Z,16.54
2023-01-25T07:01:26.905Z,16.53
2023-01-25T07:04:28.727Z,16.51
2023-01-25T07:07:30.570Z,16.51
2023-01-25T07:10:33.864Z,16.50
2023-01-25T07:13:35.830Z,16.48
2023-01-25T07:16:38.404Z,16.47
2023-01-25T07:19:39.865Z,16.47
2023-01-25T07:22:41.314Z,16.45
2023-01-25T07:25:50.508Z,16.46
2023-01-25T07:28:52.732Z,16.45
2023-01-25T07:31:54.240Z,16.46
2023-01-25T07:34:55.744Z,16.46
2023-01-25T07:37:57.267Z,16.45
2023-01-25T07:40:58.857Z,16.44
2023-01-25T07:44:00.643Z,16.44
2023-01-25T07:47:08.619Z,16.44
2023-01-25T07:50:10.887Z,16.44
2023-01-25T07:53:16.810Z,16.43
2023-01-25T07:56:19.399Z,16.42
2023-01-25T07:59:20.882Z,16.40
2023-01-25T08:02:22.443Z,16.40
2023-01-25T08:05:25.339Z,16.38
2023-01-25T08:08:27.025Z,16.38
2023-01-25T08:11:30.784Z,16.38
2023-01-25T08:14:32.902Z,16.36
2023-01-25T08:17:34.450Z,16.36
2023-01-25T08:20:37.617Z,16.36
2023-01-25T08:23:39.135Z,16.35
2023-01-25T08:26:40.659Z,16.35
2023-01-25T08:29:42.177Z,16.35
2023-01-25T08:32:43.673Z,16.34
2023-01-25T08:35:55.723Z,16.36
2023-01-25T08:38:59.950Z,16.33
2023-01-25T08:42:01.465Z,16.33
2023-01-25T08:45:03.093Z,16.33
2023-01-25T08:48:04.981Z,16.33
2023-01-25T08:51:12.856Z,16.33
2023-01-25T08:54:14.380Z,16.33
2023-01-25T08:57:15.962Z,16.30
2023-01-25T09:00:18.077Z,16.30
2023-01-25T09:03:19.548Z,16.29
2023-01-25T09:06:21.555Z,16.31
2023-01-25T09:09:24.869Z,16.33
2023-01-25T09:12:26.462Z,16.32
2023-01-25T09:15:28.351Z,16.33
2023-01-25T09:18:31.272Z,16.33
2023-01-25T09:21:33.534Z,16.34
2023-01-25T09:24:37.277Z,16.32
2023-01-25T09:27:38.975Z,16.35
2023-01-25T09:30:48.527Z,16.35
2023-01-25T09:34:01.039Z,16.34
2023-01-25T09:37:02.516Z,16.34
2023-01-25T09:40:04.904Z,16.34
2023-01-25T09:43:20.102Z,16.33
2023-01-25T09:46:36.969Z,16.32
2023-01-25T09:50:13.180Z,16.31
2023-01-25T09:53:39.255Z,16.30
2023-01-25T09:56:40.934Z,16.28
2023-01-25T09:59:45.322Z,16.30
2023-01-25T10:02:57.792Z,16.31
2023-01-25T10:06:02.047Z,16.30
2023-01-25T10:09:21.797Z,16.32
2023-01-25T10:12:25.677Z,16.31
2023-01-25T10:15:38.363Z,16.34
2023-01-25T10:19:07.502Z,16.35
2023-01-25T10:22:23.511Z,16.38
2023-01-25T10:25:34.919Z,16.40
2023-01-25T10:28:44.036Z,16.41
2023-01-25T10:31:50.444Z,16.43
2023-01-25T10:35:08.443Z,16.46
2023-01-25T10:38:27.108Z,16.47
2023-01-25T10:41:40.692Z,16.50
2023-01-25T10:44:42.327Z,16.49
2023-01-25T10:47:48.306Z,16.52
2023-01-25T10:50:52.556Z,16.52
2023-01-25T10:53:59.828Z,16.54
2023-01-25T10:57:01.767Z,16.56
2023-01-25T11:00:10.529Z,16.59
2023-01-25T11:03:22.063Z,16.61
2023-01-25T11:06:38.775Z,16.66
2023-01-25T11:09:40.306Z,16.65
2023-01-25T11:12:41.830Z,16.66
2023-01-25T11:15:46.237Z,16.69
2023-01-25T11:18:54.262Z,16.70
2023-01-25T11:21:58.506Z,16.71
2023-01-25T11:25:28.648Z,16.74
2023-01-25T11:28:30.272Z,16.73
2023-01-25T11:31:31.852Z,16.74
2023-01-25T11:34:33.381Z,16.74
2023-01-25T11:38:02.826Z,16.77
2023-01-25T11:41:21.821Z,16.77
2023-01-25T11:44:42.271Z,16.78
2023-01-25T11:48:25.283Z,16.68
2023-01-25T11:52:03.651Z,16.38
2023-01-25T11:55:14.286Z,15.99
2023-01-25T11:58:34.518Z,15.59
2023-01-25T12:01:49.777Z,15.26
2023-01-25T12:05:21.160Z,15.06
2023-01-25T12:08:49.177Z,14.79
2023-01-25T12:12:18.529Z,14.60
2023-01-25T12:15:42.398Z,14.52
2023-01-25T12:19:05.081Z,14.68
2023-01-25T12:22:28.369Z,14.87
2023-01-25T12:25:49.043Z,15.05
2023-01-25T12:28:53.528Z,15.21
2023-01-25T12:32:12.704Z,15.37
2023-01-25T12:35:28.117Z,15.50
2023-01-25T12:38:38.564Z,15.60
2023-01-25T12:41:57.144Z,15.70
2023-01-25T12:45:15.649Z,15.78
2023-01-25T12:48:22.862Z,15.86
2023-01-25T12:51:28.809Z,15.91
2023-01-25T12:54:36.159Z,15.98
2023-01-25T12:57:59.027Z,16.04
2023-01-25T13:01:19.432Z,16.07
2023-01-25T13:05:02.719Z,16.09
2023-01-25T13:08:31.082Z,16.10
2023-01-25T13:11:40.827Z,16.13
2023-01-25T13:14:42.434Z,16.13
2023-01-25T13:17:44.012Z,16.16
2023-01-25T13:20:49.243Z,16.19
2023-01-25T13:24:11.137Z,16.22
2023-01-25T13:27:27.724Z,16.24
2023-01-25T13:30:34.537Z,16.26
2023-01-25T13:33:37.019Z,16.26
2023-01-25T13:36:41.555Z,16.29
2023-01-25T13:39:45.832Z,16.29
2023-01-25T13:43:00.290Z,16.31
2023-01-25T13:46:05.899Z,16.32
2023-01-25T13:49:21.202Z,16.33
2023-01-25T13:52:25.206Z,16.35
2023-01-25T13:55:27.880Z,16.33
2023-01-25T13:58:36.313Z,16.36
2023-01-25T14:01:37.930Z,16.35
2023-01-25T14:04:39.569Z,16.35
2023-01-25T14:07:45.382Z,16.37
2023-01-25T14:10:47.468Z,16.38
2023-01-25T14:14:18.120Z,16.39
2023-01-25T14:17:23.142Z,16.40
2023-01-25T14:20:24.909Z,16.41
2023-01-25T14:23:29.043Z,16.42
2023-01-25T14:26:32.081Z,16.41
2023-01-25T14:29:40.311Z,16.42
2023-01-25T14:32:41.978Z,16.43
2023-01-25T14:36:11.580Z,16.44
2023-01-25T14:39:21.377Z,16.46
2023-01-25T14:42:22.948Z,16.46
2023-01-25T14:45:26.857Z,16.45
2023-01-25T14:48:35.206Z,16.46
2023-01-25T14:51:43.399Z,16.45
2023-01-25T14:54:50.286Z,16.45
2023-01-25T14:57:52.046Z,16.45
2023-01-25T15:01:00.557Z,16.46
2023-01-25T15:04:02.696Z,16.46
2023-01-25T15:07:16.815Z,16.47
2023-01-25T15:10:29.663Z,16.47
2023-01-25T15:13:31.180Z,16.47
2023-01-25T15:16:34.278Z,16.47
2023-01-25T15:19:35.921Z,16.47
2023-01-25T15:22:37.448Z,16.47
2023-01-25T15:25:52.521Z,16.50
2023-01-25T15:28:56.902Z,16.27
2023-01-25T15:31:58.538Z,15.96
2023-01-25T15:35:00.045Z,15.66
2023-01-25T15:38:01.580Z,15.35
2023-01-25T15:41:03.114Z,15.09
2023-01-25T15:44:04.718Z,15.05
2023-01-25T15:47:06.235Z,15.14
2023-01-25T15:50:17.625Z,15.27
2023-01-25T15:53:19.072Z,15.37
2023-01-25T15:56:24.660Z,15.49
2023-01-25T15:59:27.083Z,15.57
2023-01-25T16:02:28.780Z,15.66
2023-01-25T16:05:30.330Z,15.74
2023-01-25T16:08:31.944Z,15.82
2023-01-25T16:11:33.424Z,15.89
2023-01-25T16:14:34.920Z,15.95
2023-01-25T16:17:36.457Z,16.01
2023-01-25T16:20:37.957Z,16.07
2023-01-25T16:23:40.311Z,16.13
2023-01-25T16:26:48.129Z,16.19
2023-01-25T16:29:49.779Z,16.21
2023-01-25T16:32:52.760Z,16.26
2023-01-25T16:36:13.915Z,16.31
2023-01-25T16:39:19.987Z,16.35
2023-01-25T16:42:22.761Z,16.37
2023-01-25T16:45:25.387Z,16.40
2023-01-25T16:48:26.916Z,16.42
2023-01-25T16:51:28.865Z,16.46
2023-01-25T16:54:30.371Z,16.48
2023-01-25T16:57:31.857Z,16.49
2023-01-25T17:00:33.595Z,16.53
2023-01-25T17:03:35.037Z,16.57
2023-01-25T17:06:43.412Z,16.59
2023-01-25T17:09:44.971Z,16.59
2023-01-25T17:12:46.524Z,16.59
2023-01-25T17:15:48.201Z,16.60
2023-01-25T17:18:55.480Z,16.63
2023-01-25T17:21:59.028Z,16.62
2023-01-25T17:25:00.531Z,16.61
2023-01-25T17:28:02.032Z,16.60
2023-01-25T17:31:03.818Z,16.60
2023-01-25T17:34:07.956Z,16.63
2023-01-25T17:37:09.551Z,16.63
2023-01-25T17:40:12.025Z,16.66
2023-01-25T17:43:14.173Z,16.69
2023-01-25T17:46:22.480Z,16.74
2023-01-25T17:49:26.081Z,16.77
2023-01-25T17:52:27.560Z,16.79
2023-01-25T17:55:29.547Z,16.82
2023-01-25T17:58:34.154Z,16.83
2023-01-25T18:01:36.247Z,16.83
2023-01-25T18:04:37.843Z,16.85
2023-01-25T18:07:39.477Z,16.86
2023-01-25T18:10:41.246Z,16.87
2023-01-25T18:13:48.040Z,16.89
2023-01-25T18:16:50.411Z,16.90
2023-01-25T18:19:52.063Z,16.92
2023-01-25T18:22:54.023Z,16.92
2023-01-25T18:25:55.518Z,16.93
2023-01-25T18:29:34.422Z,16.96
2023-01-25T18:32:36.004Z,16.94
2023-01-25T18:35:37.487Z,16.96
2023-01-25T18:38:38.961Z,16.97
2023-01-25T18:41:40.411Z,16.98
2023-01-25T18:44:43.387Z,16.98
2023-01-25T18:47:44.960Z,17.00
2023-01-25T18:50:46.535Z,17.02
2023-01-25T18:53:48.042Z,17.05
2023-01-25T18:56:49.519Z,17.05
2023-01-25T18:59:51.964Z,17.07
2023-01-25T19:02:53.491Z,17.08
2023-01-25T19:05:55.022Z,17.09
2023-01-25T19:08:57.106Z,17.11
2023-01-25T19:11:58.874Z,17.12
2023-01-25T19:15:00.337Z,17.13
2023-01-25T19:18:01.817Z,17.14
2023-01-25T19:21:08.608Z,17.17
2023-01-25T19:24:15.553Z,17.19
2023-01-25T19:27:17.742Z,17.19
2023-01-25T19:30:19.288Z,17.18
2023-01-25T19:33:20.785Z,17.18
2023-01-25T19:36:22.849Z,17.20
2023-01-25T19:39:24.391Z,17.19
2023-01-25T19:42:25.852Z,17.19
2023-01-25T19:45:27.324Z,17.21
2023-01-25T19:48:32.204Z,17.21
2023-01-25T19:51:39.670Z,17.23
2023-01-25T19:54:41.166Z,17.23
2023-01-25T19:57:42.639Z,17.23
2023-01-25T20:00:44.141Z,17.23
2023-01-25T20:03:46.520Z,17.23
2023-01-25T20:06:50.067Z,17.23
2023-01-25T20:09:52.073Z,17.22
2023-01-25T20:12:53.538Z,17.23
2023-01-25T20:15:55.485Z,17.25
2023-01-25T20:18:57.151Z,17.25
2023-01-25T20:22:00.408Z,17.25
2023-01-25T20:25:02.033Z,17.25
2023-01-25T20:28:03.591Z,17.23
2023-01-25T20:31:05.421Z,17.21
2023-01-25T20:34:15.420Z,17.22
2023-01-25T20:37:17.010Z,17.20
2023-01-25T20:40:18.755Z,17.21
2023-01-25T20:43:22.390Z,17.20
2023-01-25T20:46:24.585Z,17.19
2023-01-25T20:49:26.074Z,17.17
2023-01-25T20:52:27.616Z,17.17
2023-01-25T20:55:29.086Z,17.20
2023-01-25T20:58:30.881Z,17.20
2023-01-25T21:01:38.941Z,17.24
2023-01-25T21:04:40.490Z,17.22
2023-01-25T21:07:42.122Z,17.19
2023-01-25T21:10:53.859Z,17.19
2023-01-25T21:13:55.529Z,17.14
2023-01-25T21:16:57.046Z,17.11
2023-01-25T21:19:58.634Z,17.10
2023-01-25T21:23:00.115Z,17.09
2023-01-25T21:26:02.900Z,17.08
2023-01-25T21:29:06.011Z,17.09
2023-01-25T21:32:07.528Z,17.09
2023-01-25T21:35:09.431Z,17.11
2023-01-25T21:38:11.026Z,17.10
2023-01-25T21:41:19.754Z,17.09
2023-01-25T21:44:39.837Z,17.05
2023-01-25T21:47:41.324Z,17.04
2023-01-25T21:51:18.227Z,17.02
2023-01-25T21:54:22.645Z,16.99
2023-01-25T21:57:24.121Z,16.95
2023-01-25T22:00:25.571Z,16.93
2023-01-25T22:03:27.025Z,16.90
2023-01-25T22:06:28.806Z,16.87
2023-01-25T22:09:32.829Z,16.84
2023-01-25T22:12:34.323Z,16.82
2023-01-25T22:15:35.782Z,16.79
2023-01-25T22:18:39.641Z,16.78
2023-01-25T22:21:41.098Z,16.74
2023-01-25T22:24:42.538Z,16.73
2023-01-25T22:27:55.429Z,16.73
2023-01-25T22:30:56.978Z,16.70
2023-01-25T22:33:59.432Z,16.69
2023-01-25T22:37:00.875Z,16.66
2023-01-25T22:40:02.335Z,16.65
2023-01-25T22:43:03.788Z,16.62
2023-01-25T22:46:06.601Z,16.60
2023-01-25T22:49:08.658Z,16.58
2023-01-25T22:52:10.122Z,16.55
2023-01-25T22:55:11.562Z,16.52
2023-01-25T22:58:13.023Z,16.51
2023-01-25T23:01:17.388Z,16.49
2023-01-25T23:04:18.867Z,16.47
2023-01-25T23:07:20.424Z,16.47
2023-01-25T23:10:22.832Z,16.46
2023-01-25T23:13:24.334Z,16.45
2023-01-25T23:16:25.777Z,16.43
2023-01-25T23:19:27.302Z,16.43
2023-01-25T23:22:28.820Z,16.41
2023-01-25T23:25:30.872Z,16.39
2023-01-25T23:28:32.419Z,16.38
2023-01-25T23:31:34.093Z,16.36
2023-01-25T23:34:37.002Z,16.33
2023-01-25T23:37:38.540Z,16.30
2023-01-25T23:40:40.017Z,16.31
2023-01-25T23:43:42.153Z,16.29
2023-01-25T23:46:43.680Z,16.29
2023-01-25T23:49:45.167Z,16.29
2023-01-25T23:52:46.605Z,16.27
2023-01-25T23:55:56.521Z,16.28
2023-01-25T23:58:59.081Z,16.25
